createdAt,value
2018-08-13T00:02:12.866Z,1.77
2018-08-13T00:04:42.089Z,1.50
2018-08-13T00:07:11.156Z,1.33
2018-08-13T00:09:42.377Z,1.53
2018-08-13T00:12:12.943Z,1.20
2018-08-13T00:14:42.341Z,1.50
2018-08-13T00:17:11.363Z,1.40
2018-08-13T00:19:40.479Z,1.63
2018-08-13T00:22:09.612Z,1.20
2018-08-13T00:24:38.869Z,1.60
2018-08-13T00:27:07.974Z,1.90
2018-08-13T00:29:37.108Z,1.50
2018-08-13T00:32:06.269Z,1.40
2018-08-13T00:34:35.616Z,1.70
2018-08-13T00:37:04.748Z,1.20
2018-08-13T00:39:33.730Z,1.50
2018-08-13T00:42:02.836Z,1.80
2018-08-13T00:44:32.259Z,1.37
2018-08-13T00:47:01.365Z,1.70
2018-08-13T00:49:30.529Z,1.30
2018-08-13T00:51:59.730Z,1.30
2018-08-13T00:54:28.843Z,1.50
2018-08-13T00:56:58.385Z,1.60
2018-08-13T00:59:27.475Z,1.47
2018-08-13T01:01:56.504Z,1.40
2018-08-13T01:04:31.479Z,1.27
2018-08-13T01:07:00.356Z,1.60
2018-08-13T01:09:29.339Z,1.20
2018-08-13T01:11:58.521Z,1.40
2018-08-13T01:14:27.535Z,1.30
2018-08-13T01:16:56.832Z,1.50
2018-08-13T01:19:25.916Z,1.27
2018-08-13T01:21:54.953Z,1.53
2018-08-13T01:24:23.971Z,1.63
2018-08-13T01:26:53.008Z,2.00
2018-08-13T01:29:22.101Z,1.83
2018-08-13T01:31:51.378Z,1.40
2018-08-13T01:34:20.401Z,1.40
2018-08-13T01:36:49.483Z,1.57
2018-08-13T01:39:18.339Z,1.30
2018-08-13T01:41:47.288Z,1.53
2018-08-13T01:44:16.219Z,1.27
2018-08-13T01:46:45.366Z,1.33
2018-08-13T01:49:14.335Z,1.23
2018-08-13T01:51:43.244Z,1.40
2018-08-13T01:54:12.346Z,1.30
2018-08-13T01:56:41.299Z,1.50
2018-08-13T01:59:10.409Z,1.53
2018-08-13T02:01:39.469Z,1.20
2018-08-13T02:04:08.520Z,1.27
2018-08-13T02:06:37.717Z,1.30
2018-08-13T02:09:08.847Z,1.67
2018-08-13T02:11:37.847Z,1.27
2018-08-13T02:14:07.392Z,1.30
2018-08-13T02:16:36.337Z,1.40
2018-08-13T02:19:05.542Z,1.20
2018-08-13T02:21:34.614Z,1.23
2018-08-13T02:24:03.798Z,1.37
2018-08-13T02:26:33.026Z,1.13
2018-08-13T02:29:07.870Z,1.23
2018-08-13T02:31:36.951Z,1.20
2018-08-13T02:34:06.015Z,1.50
2018-08-13T02:36:35.040Z,1.50
2018-08-13T02:39:04.865Z,1.17
2018-08-13T02:41:33.985Z,1.83
2018-08-13T02:44:03.027Z,1.87
2018-08-13T02:46:32.234Z,1.40
2018-08-13T02:49:01.200Z,1.60
2018-08-13T02:51:30.174Z,1.20
2018-08-13T02:53:59.128Z,1.27
2018-08-13T02:56:28.283Z,1.97
2018-08-13T02:58:57.544Z,1.20
2018-08-13T03:01:26.570Z,1.87
2018-08-13T03:03:55.715Z,1.77
2018-08-13T03:06:24.911Z,1.60
2018-08-13T03:08:54.115Z,2.10
2018-08-13T03:11:23.237Z,1.63
2018-08-13T03:13:52.900Z,1.50
2018-08-13T03:16:21.919Z,1.60
2018-08-13T03:18:51.077Z,1.30
2018-08-13T03:21:20.009Z,1.87
2018-08-13T03:23:49.013Z,1.00
2018-08-13T03:26:24.162Z,1.23
2018-08-13T03:28:53.611Z,1.20
2018-08-13T03:31:22.736Z,1.10
2018-08-13T03:33:51.722Z,1.50
2018-08-13T03:36:20.759Z,1.50
2018-08-13T03:38:49.690Z,1.70
2018-08-13T03:41:18.693Z,1.40
2018-08-13T03:43:48.082Z,1.73
2018-08-13T03:46:17.321Z,1.93
2018-08-13T03:48:46.517Z,1.83
2018-08-13T03:51:15.618Z,1.57
2018-08-13T03:53:44.762Z,1.50
2018-08-13T03:56:13.676Z,1.43
2018-08-13T03:58:43.096Z,1.30
2018-08-13T04:01:12.246Z,1.80
2018-08-13T04:03:41.154Z,2.43
2018-08-13T04:06:10.303Z,1.33
2018-08-13T04:08:39.557Z,1.57
2018-08-13T04:11:08.585Z,1.30
2018-08-13T04:13:37.636Z,1.33
2018-08-13T04:16:07.216Z,2.00
2018-08-13T04:18:36.283Z,1.97
2018-08-13T04:21:05.228Z,1.93
2018-08-13T04:23:34.156Z,1.57
2018-08-13T04:26:03.230Z,1.83
2018-08-13T04:28:32.639Z,1.70
2018-08-13T04:31:01.564Z,1.67
2018-08-13T04:33:30.850Z,1.70
2018-08-13T04:35:59.896Z,1.57
2018-08-13T04:38:28.891Z,1.40
2018-08-13T04:40:58.117Z,2.00
2018-08-13T04:43:27.441Z,1.50
2018-08-13T04:45:56.424Z,2.13
2018-08-13T04:48:25.423Z,1.43
2018-08-13T04:50:54.411Z,1.80
2018-08-13T04:53:23.509Z,2.20
2018-08-13T04:55:52.626Z,1.60
2018-08-13T04:58:21.693Z,2.00
2018-08-13T05:00:50.755Z,1.77
2018-08-13T05:03:19.734Z,1.40
2018-08-13T05:05:48.920Z,1.20
2018-08-13T05:08:18.025Z,1.27
2018-08-13T05:10:47.155Z,2.00
2018-08-13T05:13:15.931Z,1.77
2018-08-13T05:15:44.987Z,1.93
2018-08-13T05:18:14.270Z,2.27
2018-08-13T05:20:43.343Z,2.30
2018-08-13T05:23:12.559Z,1.40
2018-08-13T05:25:41.962Z,1.30
2018-08-13T05:28:14.215Z,1.90
2018-08-13T05:30:50.151Z,1.97
2018-08-13T05:33:21.509Z,1.43
2018-08-13T05:35:54.354Z,1.60
2018-08-13T05:38:23.658Z,1.23
2018-08-13T05:40:52.659Z,1.37
2018-08-13T05:43:21.817Z,1.20
2018-08-13T05:45:50.696Z,2.10
2018-08-13T05:48:19.723Z,1.30
2018-08-13T05:50:48.661Z,1.50
2018-08-13T05:53:17.692Z,1.70
2018-08-13T05:55:46.667Z,1.80
2018-08-13T05:58:15.578Z,1.60
2018-08-13T06:00:44.641Z,1.20
2018-08-13T06:03:13.712Z,1.30
2018-08-13T06:05:42.902Z,1.40
2018-08-13T06:08:11.963Z,1.63
2018-08-13T06:10:40.952Z,1.57
2018-08-13T06:13:09.877Z,2.20
2018-08-13T06:15:39.023Z,1.80
2018-08-13T06:18:08.054Z,1.53
2018-08-13T06:20:37.078Z,2.37
2018-08-13T06:23:06.261Z,2.17
2018-08-13T06:25:35.402Z,1.97
2018-08-13T06:28:04.423Z,2.00
2018-08-13T06:30:33.541Z,1.40
2018-08-13T06:33:02.492Z,2.00
2018-08-13T06:35:31.665Z,1.40
2018-08-13T06:38:01.105Z,1.30
2018-08-13T06:40:30.318Z,1.60
2018-08-13T06:42:59.377Z,1.37
2018-08-13T06:45:28.406Z,1.23
2018-08-13T06:47:57.508Z,1.20
2018-08-13T06:50:26.518Z,1.10
2018-08-13T06:52:57.906Z,1.43
2018-08-13T06:55:27.127Z,1.30
2018-08-13T06:57:56.120Z,1.17
2018-08-13T07:00:25.155Z,1.30
2018-08-13T07:02:54.103Z,1.30
2018-08-13T07:05:23.121Z,1.27
2018-08-13T07:07:52.728Z,1.50
2018-08-13T07:10:21.737Z,1.50
2018-08-13T07:12:51.147Z,1.40
2018-08-13T07:15:20.316Z,1.30
2018-08-13T07:17:49.234Z,1.10
2018-08-13T07:20:18.525Z,1.30
2018-08-13T07:22:47.579Z,1.27
2018-08-13T07:25:16.807Z,1.50
2018-08-13T07:27:46.027Z,1.50
2018-08-13T07:30:15.427Z,1.30
2018-08-13T07:32:45.835Z,1.50
2018-08-13T07:35:14.988Z,1.40
2018-08-13T07:37:44.244Z,1.47
2018-08-13T07:40:15.129Z,1.40
2018-08-13T07:42:44.452Z,1.40
2018-08-13T07:45:13.204Z,1.40
2018-08-13T07:47:42.383Z,1.33
2018-08-13T07:50:13.232Z,1.40
2018-08-13T07:52:42.471Z,1.23
2018-08-13T07:55:11.924Z,1.30
2018-08-13T07:57:41.330Z,1.33
2018-08-13T08:00:13.271Z,1.30
2018-08-13T08:02:42.534Z,1.20
2018-08-13T08:05:11.700Z,1.17
2018-08-13T08:07:40.723Z,1.53
2018-08-13T08:10:11.389Z,1.07
2018-08-13T08:12:40.608Z,1.30
2018-08-13T08:15:13.692Z,1.30
2018-08-13T08:17:42.914Z,1.33
2018-08-13T08:20:11.975Z,1.40
2018-08-13T08:22:41.210Z,1.20
2018-08-13T08:25:14.482Z,1.47
2018-08-13T08:27:44.507Z,1.50
2018-08-13T08:30:14.053Z,1.47
2018-08-13T08:32:43.218Z,1.27
2018-08-13T08:35:13.750Z,1.50
2018-08-13T08:37:43.319Z,1.30
2018-08-13T08:40:14.289Z,1.20
2018-08-13T08:42:43.639Z,1.20
2018-08-13T08:45:15.889Z,1.47
2018-08-13T08:47:45.291Z,1.30
2018-08-13T08:50:15.408Z,1.30
2018-08-13T08:52:45.423Z,1.40
2018-08-13T08:55:14.925Z,1.20
2018-08-13T08:57:44.224Z,1.67
2018-08-13T09:00:17.730Z,1.40
2018-08-13T09:02:47.146Z,1.27
2018-08-13T09:05:16.771Z,1.33
2018-08-13T09:07:46.564Z,1.70
2018-08-13T09:10:16.033Z,1.37
2018-08-13T09:12:45.509Z,1.33
2018-08-13T09:15:16.306Z,1.10
2018-08-13T09:17:57.433Z,1.67
2018-08-13T09:20:37.509Z,1.40
2018-08-13T09:23:17.429Z,1.23
2018-08-13T09:25:57.608Z,1.33
2018-08-13T09:28:37.781Z,1.47
2018-08-13T09:31:17.820Z,1.50
2018-08-13T09:33:57.807Z,1.20
2018-08-13T09:36:27.205Z,1.53
2018-08-13T09:38:56.477Z,1.57
2018-08-13T09:41:25.737Z,1.53
2018-08-13T09:43:55.019Z,1.40
2018-08-13T09:46:24.158Z,1.57
2018-08-13T09:48:53.511Z,1.43
2018-08-13T09:51:22.540Z,1.30
2018-08-13T09:53:51.802Z,1.00
2018-08-13T09:56:21.018Z,1.30
2018-08-13T09:58:50.362Z,1.40
2018-08-13T10:01:19.693Z,1.30
2018-08-13T10:03:48.996Z,1.33
2018-08-13T10:06:18.196Z,1.50
2018-08-13T10:08:47.469Z,1.50
2018-08-13T10:11:16.742Z,1.37
2018-08-13T10:13:46.250Z,1.33
2018-08-13T10:16:15.602Z,1.27
2018-08-13T10:18:44.803Z,1.27
2018-08-13T10:21:13.861Z,1.60
2018-08-13T10:23:43.047Z,1.77
2018-08-13T10:26:12.136Z,1.40
2018-08-13T10:28:41.165Z,1.20
2018-08-13T10:31:10.394Z,1.43
2018-08-13T10:33:39.775Z,1.30
2018-08-13T10:36:09.624Z,1.30
2018-08-13T10:38:38.876Z,1.43
2018-08-13T10:41:08.320Z,1.70
2018-08-13T10:43:37.840Z,1.80
2018-08-13T10:46:07.021Z,2.47
2018-08-13T10:48:36.121Z,1.83
2018-08-13T10:51:05.577Z,1.70
2018-08-13T10:53:34.856Z,2.23
2018-08-13T10:56:04.414Z,1.93
2018-08-13T10:58:33.839Z,1.87
2018-08-13T11:01:03.191Z,1.80
2018-08-13T11:03:32.593Z,2.43
2018-08-13T11:06:01.809Z,2.53
2018-08-13T11:08:31.410Z,1.80
2018-08-13T11:11:00.704Z,2.40
2018-08-13T11:13:30.173Z,2.67
2018-08-13T11:15:59.509Z,1.87
2018-08-13T11:18:28.560Z,2.50
2018-08-13T11:20:57.775Z,2.70
2018-08-13T11:23:27.133Z,1.80
2018-08-13T11:25:56.777Z,1.80
2018-08-13T11:28:26.214Z,3.00
2018-08-13T11:30:56.023Z,2.00
2018-08-13T11:33:25.112Z,1.90
2018-08-13T11:35:54.278Z,2.63
2018-08-13T11:38:23.521Z,2.30
2018-08-13T11:40:52.953Z,3.00
2018-08-13T11:43:22.039Z,2.67
2018-08-13T11:45:55.431Z,3.07
2018-08-13T11:48:24.710Z,2.50
2018-08-13T11:50:53.938Z,2.70
2018-08-13T11:53:23.239Z,2.00
2018-08-13T11:55:52.452Z,2.33
2018-08-13T11:58:21.717Z,2.73
2018-08-13T12:00:51.230Z,1.90
2018-08-13T12:03:20.542Z,2.53
2018-08-13T12:05:49.912Z,1.87
2018-08-13T12:08:19.069Z,1.80
2018-08-13T12:10:48.317Z,1.90
2018-08-13T12:13:17.639Z,1.57
2018-08-13T12:15:46.768Z,1.67
2018-08-13T12:18:15.931Z,2.30
2018-08-13T12:20:45.326Z,2.33
2018-08-13T12:23:14.618Z,2.10
2018-08-13T12:25:43.678Z,2.20
2018-08-13T12:28:12.925Z,1.70
2018-08-13T12:30:42.273Z,1.30
2018-08-13T12:33:11.525Z,1.80
2018-08-13T12:35:40.781Z,1.30
2018-08-13T12:38:09.966Z,1.40
2018-08-13T12:40:39.210Z,1.50
2018-08-13T12:43:08.388Z,1.53
2018-08-13T12:45:37.515Z,1.42
2018-08-13T12:48:07.049Z,1.45
2018-08-13T12:50:36.262Z,1.20
2018-08-13T12:53:05.326Z,1.30
2018-08-13T12:55:34.368Z,1.15
2018-08-13T12:58:03.594Z,1.77
2018-08-13T13:00:32.579Z,1.20
2018-08-13T13:03:01.694Z,1.27
2018-08-13T13:05:30.802Z,1.60
2018-08-13T13:07:59.994Z,1.57
2018-08-13T13:10:28.978Z,1.98
2018-08-13T13:12:58.168Z,1.57
2018-08-13T13:15:27.069Z,1.30
2018-08-13T13:17:56.258Z,1.77
2018-08-13T13:20:25.291Z,1.50
2018-08-13T13:22:54.289Z,1.42
2018-08-13T13:25:23.333Z,1.50
2018-08-13T13:27:52.232Z,1.50
2018-08-13T13:30:25.158Z,1.55
2018-08-13T13:32:54.288Z,1.57
2018-08-13T13:35:23.449Z,1.75
2018-08-13T13:37:52.491Z,2.02
2018-08-13T13:40:21.553Z,1.37
2018-08-13T13:42:50.760Z,2.00
2018-08-13T13:45:58.000Z,2.47
2018-08-13T13:48:26.993Z,1.52
2018-08-13T13:50:56.077Z,1.40
2018-08-13T13:53:25.346Z,2.22
2018-08-13T13:55:54.372Z,1.40
2018-08-13T13:58:23.329Z,1.57
2018-08-13T14:00:52.805Z,1.77
2018-08-13T14:03:21.930Z,1.50
2018-08-13T14:05:50.867Z,1.40
2018-08-13T14:08:19.923Z,1.55
2018-08-13T14:10:49.153Z,1.67
2018-08-13T14:13:18.259Z,1.30
2018-08-13T14:15:47.366Z,1.35
2018-08-13T14:18:16.545Z,1.25
2018-08-13T14:20:45.878Z,1.20
2018-08-13T14:23:15.068Z,1.20
2018-08-13T14:25:44.247Z,1.27
2018-08-13T14:28:13.584Z,1.52
2018-08-13T14:30:42.652Z,1.17
2018-08-13T14:33:11.624Z,1.40
2018-08-13T14:35:40.727Z,1.20
2018-08-13T14:38:09.798Z,1.17
2018-08-13T14:40:38.721Z,1.10
2018-08-13T14:43:07.668Z,1.05
2018-08-13T14:45:36.534Z,1.30
2018-08-13T14:48:05.994Z,1.02
2018-08-13T14:50:35.202Z,1.30
2018-08-13T14:53:04.182Z,1.20
2018-08-13T14:55:56.576Z,1.15
2018-08-13T15:01:14.788Z,1.10
2018-08-13T15:03:43.772Z,1.20
2018-08-13T15:06:12.894Z,1.57
2018-08-13T15:08:41.872Z,1.40
2018-08-13T15:42:41.064Z,1.77
2018-08-13T15:45:12.788Z,1.20
2018-08-13T15:47:41.822Z,1.23
2018-08-13T15:50:12.466Z,1.53
2018-08-13T15:52:43.842Z,1.50
2018-08-13T15:55:13.578Z,1.10
2018-08-13T15:57:43.071Z,1.10
2018-08-13T16:00:18.188Z,1.50
2018-08-13T16:02:47.197Z,1.60
2018-08-13T16:05:16.174Z,1.53
2018-08-13T16:07:45.407Z,1.63
2018-08-13T16:10:15.899Z,1.50
2018-08-13T16:12:45.416Z,1.50
2018-08-13T16:15:14.482Z,1.80
2018-08-13T16:17:43.709Z,1.70
2018-08-13T16:20:14.844Z,1.80
2018-08-13T16:22:44.722Z,1.67
2018-08-13T16:25:13.668Z,1.70
2018-08-13T16:27:47.610Z,1.87
2018-08-13T16:30:20.703Z,2.23
2018-08-13T16:32:49.759Z,1.70
2018-08-13T16:35:19.119Z,2.73
2018-08-13T16:37:49.465Z,1.87
2018-08-13T16:40:18.950Z,1.80
2018-08-13T16:42:53.514Z,1.80
2018-08-13T16:45:23.247Z,1.87
2018-08-13T16:47:52.319Z,1.73
2018-08-13T16:50:27.822Z,1.77
2018-08-13T16:52:57.061Z,1.90
2018-08-13T16:55:32.881Z,2.10
2018-08-13T16:58:02.429Z,3.27
2018-08-13T17:00:32.223Z,2.80
2018-08-13T17:03:01.818Z,3.33
2018-08-13T17:05:32.263Z,2.23
2018-08-13T17:08:01.347Z,2.83
2018-08-13T17:10:30.853Z,2.10
2018-08-13T17:13:00.089Z,2.73
2018-08-13T17:15:31.926Z,1.97
2018-08-13T17:18:01.816Z,3.77
2018-08-13T17:20:45.563Z,1.97
2018-08-13T17:23:14.798Z,1.90
2018-08-13T17:25:43.615Z,2.03
2018-08-13T17:28:12.567Z,2.00
2018-08-13T17:30:41.585Z,2.20
2018-08-13T17:33:10.695Z,1.97
2018-08-13T17:35:39.657Z,2.33
2018-08-13T17:38:11.011Z,2.20
2018-08-13T17:40:40.159Z,1.67
2018-08-13T17:43:10.317Z,1.97
2018-08-13T17:45:39.029Z,1.87
2018-08-13T17:48:09.103Z,1.90
2018-08-13T17:50:38.144Z,1.87
2018-08-13T17:53:11.893Z,1.77
2018-08-13T17:55:41.272Z,1.80
2018-08-13T17:58:10.233Z,1.90
2018-08-13T18:00:39.400Z,2.10
2018-08-13T18:03:08.474Z,2.50
2018-08-13T18:05:37.556Z,1.83
2018-08-13T18:08:06.861Z,3.23
2018-08-13T18:10:35.976Z,3.20
2018-08-13T18:13:06.896Z,1.83
2018-08-13T18:15:36.321Z,1.87
2018-08-13T18:18:05.406Z,2.93
2018-08-13T18:20:34.301Z,2.63
2018-08-13T18:23:03.608Z,4.30
2018-08-13T18:25:32.587Z,2.83
2018-08-13T18:28:01.647Z,2.30
2018-08-13T18:30:30.686Z,2.47
2018-08-13T18:32:59.630Z,2.40
2018-08-13T18:35:28.681Z,5.53
2018-08-13T18:37:57.643Z,2.20
2018-08-13T18:40:30.520Z,2.27
2018-08-13T18:42:59.735Z,3.80
2018-08-13T18:45:28.706Z,2.40
2018-08-13T18:47:58.209Z,2.23
2018-08-13T18:50:27.313Z,3.00
2018-08-13T18:52:57.781Z,2.87
2018-08-13T18:55:27.806Z,2.83
2018-08-13T18:57:57.528Z,3.80
2018-08-13T19:00:30.411Z,2.90
2018-08-13T19:03:00.954Z,2.80
2018-08-13T19:05:30.114Z,3.10
2018-08-13T19:08:00.876Z,3.27
2018-08-13T19:10:30.591Z,3.93
2018-08-13T19:12:59.343Z,2.80
2018-08-13T19:15:29.380Z,3.87
2018-08-13T19:18:04.584Z,3.30
2018-08-13T19:20:39.273Z,2.60
2018-08-13T19:23:08.397Z,3.57
2018-08-13T19:25:37.290Z,2.77
2018-08-13T19:28:06.787Z,2.73
2018-08-13T19:30:35.629Z,2.30
2018-08-13T19:33:04.874Z,2.60
2018-08-13T19:35:33.878Z,3.13
2018-08-13T19:38:03.012Z,3.13
2018-08-13T19:40:31.945Z,3.10
2018-08-13T19:43:01.074Z,2.47
2018-08-13T19:45:30.105Z,2.83
2018-08-13T19:47:59.087Z,4.10
2018-08-13T19:50:28.297Z,2.40
2018-08-13T19:53:00.598Z,2.40
2018-08-13T19:55:29.657Z,3.93
2018-08-13T19:57:58.587Z,2.73
2018-08-13T20:00:28.588Z,3.00
2018-08-13T20:02:57.685Z,3.27
2018-08-13T20:05:27.715Z,2.70
2018-08-13T20:07:56.902Z,2.30
2018-08-13T20:10:25.687Z,3.47
2018-08-13T20:12:58.603Z,3.00
2018-08-13T20:15:27.669Z,3.50
2018-08-13T20:17:56.784Z,3.37
2018-08-13T20:20:25.986Z,4.67
2018-08-13T20:22:55.032Z,5.37
2018-08-13T20:25:23.971Z,3.73
2018-08-13T20:27:53.092Z,3.13
2018-08-13T20:30:23.148Z,3.40
2018-08-13T20:32:52.956Z,3.97
2018-08-13T20:35:22.123Z,3.37
2018-08-13T20:37:51.244Z,2.90
2018-08-13T20:40:21.290Z,2.60
2018-08-13T20:42:50.760Z,2.90
2018-08-13T20:45:21.219Z,2.50
2018-08-13T20:47:57.967Z,3.00
2018-08-13T20:50:26.801Z,3.03
2018-08-13T20:53:02.500Z,2.90
2018-08-13T20:55:31.488Z,2.30
2018-08-13T20:58:00.500Z,2.30
2018-08-13T21:00:30.606Z,2.40
2018-08-13T21:02:59.603Z,2.00
2018-08-13T21:05:28.597Z,1.77
2018-08-13T21:07:58.087Z,2.83
2018-08-13T21:10:27.702Z,1.80
2018-08-13T21:12:57.174Z,2.13
2018-08-13T21:15:26.881Z,2.20
2018-08-13T21:17:56.483Z,3.27
2018-08-13T21:20:27.517Z,2.90
2018-08-13T21:22:56.636Z,2.93
2018-08-13T21:25:25.514Z,2.10
2018-08-13T21:27:54.580Z,2.37
2018-08-13T21:30:23.856Z,3.03
2018-08-13T21:32:53.587Z,2.80
2018-08-13T21:35:24.445Z,3.00
2018-08-13T21:37:53.885Z,3.17
2018-08-13T21:40:23.252Z,2.50
2018-08-13T21:42:52.599Z,3.03
2018-08-13T21:45:21.749Z,2.27
2018-08-13T21:47:50.695Z,4.63
2018-08-13T21:50:21.469Z,3.53
2018-08-13T21:52:50.966Z,3.60
2018-08-13T21:55:20.254Z,4.90
2018-08-13T21:57:49.427Z,2.43
2018-08-13T22:00:23.898Z,2.60
2018-08-13T22:02:53.297Z,2.73
2018-08-13T22:05:22.686Z,2.60
2018-08-13T22:07:51.867Z,2.97
2018-08-13T22:10:21.179Z,2.70
2018-08-13T22:12:50.389Z,2.90
2018-08-13T22:15:26.578Z,2.93
2018-08-13T22:18:00.355Z,3.20
2018-08-13T22:20:30.287Z,3.33
2018-08-13T22:23:00.154Z,2.90
2018-08-13T22:25:31.021Z,3.40
2018-08-13T22:28:00.265Z,3.00
2018-08-13T22:30:29.769Z,3.23
2018-08-13T22:32:58.750Z,2.70
2018-08-13T22:35:27.881Z,5.37
2018-08-13T22:37:57.197Z,2.90
2018-08-13T22:40:26.048Z,3.03
2018-08-13T22:42:55.121Z,2.97
2018-08-13T22:45:24.796Z,4.07
2018-08-13T22:47:53.752Z,3.43
2018-08-13T22:50:22.857Z,3.10
2018-08-13T22:52:51.718Z,3.33
2018-08-13T22:55:20.756Z,3.00
2018-08-13T22:57:49.929Z,3.77
2018-08-13T23:00:19.926Z,5.33
2018-08-13T23:02:49.602Z,3.27
2018-08-13T23:05:20.249Z,3.43
2018-08-13T23:07:49.430Z,2.90
2018-08-13T23:10:19.787Z,2.50
2018-08-13T23:12:49.686Z,4.07
2018-08-13T23:15:22.425Z,4.20
2018-08-13T23:17:51.833Z,4.53
2018-08-13T23:20:25.798Z,3.13
2018-08-13T23:22:55.810Z,2.70
2018-08-13T23:25:25.098Z,2.97
2018-08-13T23:27:54.938Z,5.80
2018-08-13T23:30:24.017Z,3.97
2018-08-13T23:32:53.981Z,2.83
2018-08-13T23:35:23.719Z,2.80
2018-08-13T23:37:52.930Z,3.77
2018-08-13T23:40:22.179Z,2.87
2018-08-13T23:42:51.586Z,6.20
2018-08-13T23:45:23.734Z,3.40
2018-08-13T23:47:58.359Z,3.60
2018-08-13T23:50:28.383Z,4.90
2018-08-13T23:52:59.196Z,3.63
2018-08-13T23:55:29.634Z,3.30
2018-08-13T23:57:58.957Z,3.50
